Time;durP1;ratioP1;P1;durP2;ratioP2;P2;SDS_P1;SDS_P2;PMS_P1;PMS_P2;Temp;Humidity;BMP_temperature;BMP_pressure;BME280_temperature;BME280_humidity;BME280_pressure;Samples;Min_cycle;Max_cycle;Signal;HPM_P1;HPM_P2
2021/06/25 00:00:31;;;;;;;;;;;;;;;;;;5058119;28;20438;-80
2021/06/25 00:02:56;;;;;;;;;;;;;;;;;;5058344;28;19912;-80
2021/06/25 00:05:22;;;;;;;;;;;;;;;;;;5058413;28;19920;-80
2021/06/25 00:07:47;;;;;;;;;;;;;;;;;;5058093;28;19921;-80
2021/06/25 00:10:12;;;;;;;;;;;;;;;;;;5058526;28;19912;-80
2021/06/25 00:12:37;;;;;;;;;;;;;;;;;;5058616;28;19917;-80
2021/06/25 00:15:03;;;;;;;;;;;;;;;;;;5058129;28;19913;-80
2021/06/25 00:17:29;;;;;;;;;;;;;;;;;;5058258;28;19921;-80
2021/06/25 00:19:54;;;;;;;;;;;;;;;;;;5032692;28;20399;-80
2021/06/25 00:22:19;;;;;;;;;;;;;;;;;;5024273;28;19959;-80
2021/06/25 00:24:44;;;;;;;;;;;;;;;;;;5056296;28;20322;-80
2021/06/25 00:27:09;;;;;;;;;;;;;;;;;;5056193;28;19921;-80
2021/06/25 00:29:35;;;;;;;;;;;;;;;;;;5045091;28;19974;-80
2021/06/25 00:32:00;;;;;;;;;;;;;;;;;;5023238;28;20007;-80
2021/06/25 00:34:25;;;;;;;;;;;;;;;;;;5041747;28;19913;-80
2021/06/25 00:36:50;;;;;;;;;;;;;;;;;;5056503;28;20295;-80
2021/06/25 00:39:15;;;;;;;;;;;;;;;;;;5056810;28;20422;-80
2021/06/25 00:41:41;;;;;;;;;;;;;;;;;;5056049;28;19913;-80
2021/06/25 00:44:12;;;;;;;;;;;;;;;;;;5053748;28;19919;-80
2021/06/25 00:46:38;;;;;;;;;;;;;;;;;;5039738;28;19934;-80
2021/06/25 00:49:03;;;;;;;;;;;;;;;;;;5039421;28;20012;-80
2021/06/25 00:51:28;;;;;;;;;;;;;;;;;;5023070;28;20291;-80
2021/06/25 00:53:53;;;;;;;;;;;;;;;;;;5039506;28;19913;-80
2021/06/25 00:56:18;;;;;;;;;;;;;;;;;;5040648;28;19924;-80
2021/06/25 00:58:44;;;;;;;;;;;;;;;;;;5026632;28;19913;-80
2021/06/25 01:01:09;;;;;;;;;;;;;;;;;;5042865;28;20342;-80
2021/06/25 01:03:35;;;;;;;;;;;;;;;;;;5043404;28;20432;-80
2021/06/25 01:06:00;;;;;;;;;;;;;;;;;;5043121;28;19941;-80
2021/06/25 01:08:25;;;;;;;;;;;;;;;;;;5026805;28;19919;-80
2021/06/25 01:10:52;;;;;;;;;;;;;;;;;;5026931;28;19955;-80
2021/06/25 01:13:17;;;;;;;;;;;;;;;;;;5026370;28;20406;-80
2021/06/25 01:15:42;;;;;;;;;;;;;;;;;;5026307;28;19952;-80
2021/06/25 01:18:07;;;;;;;;;;;;;;;;;;5043038;28;19970;-80
2021/06/25 01:20:33;;;;;;;;;;;;;;;;;;5042718;28;19913;-80
2021/06/25 01:22:58;;;;;;;;;;;;;;;;;;5043029;28;19975;-80
2021/06/25 01:25:24;;;;;;;;;;;;;;;;;;5043211;28;19913;-80
2021/06/25 01:27:50;;;;;;;;;;;;;;;;;;5042519;28;19917;-80
2021/06/25 01:30:16;;;;;;;;;;;;;;;;;;5042446;28;19963;-80
2021/06/25 01:32:42;;;;;;;;;;;;;;;;;;5042748;28;19917;-80
2021/06/25 01:35:07;;;;;;;;;;;;;;;;;;5042859;28;19917;-80
2021/06/25 01:37:32;;;;;;;;;;;;;;;;;;5026243;28;19913;-80
2021/06/25 01:39:57;;;;;;;;;;;;;;;;;;5025923;28;20379;-80
2021/06/25 01:42:23;;;;;;;;;;;;;;;;;;5042884;28;19920;-80
2021/06/25 01:44:48;;;;;;;;;;;;;;;;;;5025706;28;19920;-80
2021/06/25 01:47:16;;;;;;;;;;;;;;;;;;5042691;28;19921;-80
2021/06/25 01:49:41;;;;;;;;;;;;;;;;;;5043548;28;20371;-80
2021/06/25 01:52:06;;;;;;;;;;;;;;;;;;5025788;28;19920;-80
2021/06/25 01:54:32;;;;;;;;;;;;;;;;;;5042265;28;19919;-80
2021/06/25 01:56:57;;;;;;;;;;;;;;;;;;5026010;28;19917;-80
2021/06/25 01:59:23;;;;;;;;;;;;;;;;;;5042593;28;19913;-80
2021/06/25 02:01:48;;;;;;;;;;;;;;;;;;5042604;28;19954;-80
2021/06/25 02:04:13;;;;;;;;;;;;;;;;;;5025810;28;19913;-80
2021/06/25 02:06:38;;;;;;;;;;;;;;;;;;5041922;28;19925;-80
2021/06/25 02:09:04;;;;;;;;;;;;;;;;;;5040231;28;19913;-80
2021/06/25 02:11:29;;;;;;;;;;;;;;;;;;5043039;28;19920;-80
2021/06/25 02:13:54;;;;;;;;;;;;;;;;;;5042122;28;19913;-80
2021/06/25 02:16:19;;;;;;;;;;;;;;;;;;5059816;28;19935;-80
2021/06/25 02:18:44;;;;;;;;;;;;;;;;;;5041598;28;19917;-80
2021/06/25 02:21:10;;;;;;;;;;;;;;;;;;5025305;28;19912;-80
2021/06/25 02:23:35;;;;;;;;;;;;;;;;;;5059719;28;19920;-80
2021/06/25 02:26:00;;;;;;;;;;;;;;;;;;5041946;28;20014;-80
2021/06/25 02:28:25;;;;;;;;;;;;;;;;;;5041906;28;19917;-80
2021/06/25 02:30:50;;;;;;;;;;;;;;;;;;5041811;28;19920;-80
2021/06/25 02:33:16;;;;;;;;;;;;;;;;;;5039370;28;20287;-80
2021/06/25 02:35:41;;;;;;;;;;;;;;;;;;5030724;28;19917;-80
2021/06/25 02:38:06;;;;;;;;;;;;;;;;;;5041558;28;19913;-80
2021/06/25 02:40:31;;;;;;;;;;;;;;;;;;5024926;28;19963;-80
2021/06/25 02:42:57;;;;;;;;;;;;;;;;;;5047998;28;19996;-80
2021/06/25 02:45:22;;;;;;;;;;;;;;;;;;5043797;28;19936;-80
2021/06/25 02:47:47;;;;;;;;;;;;;;;;;;5024962;28;20386;-80
2021/06/25 02:50:12;;;;;;;;;;;;;;;;;;5054111;28;19913;-80
2021/06/25 02:52:39;;;;;;;;;;;;;;;;;;5041299;28;19921;-80
2021/06/25 02:55:05;;;;;;;;;;;;;;;;;;5041352;28;19920;-80
2021/06/25 02:57:30;;;;;;;;;;;;;;;;;;5057471;28;19913;-80
2021/06/25 02:59:56;;;;;;;;;;;;;;;;;;5040740;28;19913;-80
2021/06/25 03:02:21;;;;;;;;;;;;;;;;;;5040859;28;19920;-80
2021/06/25 03:04:46;;;;;;;;;;;;;;;;;;5057783;28;19920;-80
2021/06/25 03:07:11;;;;;;;;;;;;;;;;;;5057058;28;19917;-80
2021/06/25 03:09:37;;;;;;;;;;;;;;;;;;5037538;28;19947;-80
2021/06/25 03:12:02;;;;;;;;;;;;;;;;;;5020005;28;20291;-80
2021/06/25 03:14:27;;;;;;;;;;;;;;;;;;5034980;28;19917;-80
2021/06/25 03:16:53;;;;;;;;;;;;;;;;;;5020299;28;19913;-80
2021/06/25 03:19:18;;;;;;;;;;;;;;;;;;5035486;23;20326;-77
2021/06/25 03:21:43;;;;;;;;;;;;;;;;;;5056893;28;20081;-78
2021/06/25 03:24:08;;;;;;;;;;;;;;;;;;5056579;28;19927;-77
2021/06/25 03:26:33;;;;;;;;;;;;;;;;;;5056891;28;19926;-77
2021/06/25 03:28:59;;;;;;;;;;;;;;;;;;5057063;28;19943;-77
2021/06/25 03:31:24;;;;;;;;;;;;;;;;;;5057825;28;20363;-78
2021/06/25 03:33:49;;;;;;;;;;;;;;;;;;5057029;28;19913;-77
2021/06/25 03:36:14;;;;;;;;;;;;;;;;;;5056496;28;19924;-77
2021/06/25 03:38:40;;;;;;;;;;;;;;;;;;5056216;28;19916;-77
2021/06/25 03:41:05;;;;;;;;;;;;;;;;;;5074322;28;19912;-77
2021/06/25 03:43:30;;;;;;;;;;;;;;;;;;5054786;28;19920;-77
2021/06/25 03:45:55;;;;;;;;;;;;;;;;;;5074263;28;19912;-77
2021/06/25 03:48:21;;;;;;;;;;;;;;;;;;5074172;28;19919;-77
2021/06/25 03:50:46;;;;;;;;;;;;;;;;;;5056306;28;19912;-77
2021/06/25 03:53:11;;;;;;;;;;;;;;;;;;5074182;28;20370;-77
2021/06/25 03:56:09;;;;;;;;;;;;;;;;;;5056387;28;20359;-76
2021/06/25 03:58:21;;;;;;;;;;;;;;;;;;5058903;28;19952;-76
2021/06/25 04:00:47;;;;;;;;;;;;;;;;;;5073979;28;20287;-77
2021/06/25 04:03:12;;;;;;;;;;;;;;;;;;5056031;28;20015;-77
2021/06/25 04:05:37;;;;;;;;;;;;;;;;;;5039421;28;19913;-77
2021/06/25 04:08:03;;;;;;;;;;;;;;;;;;5073842;28;19923;-76
2021/06/25 04:10:28;;;;;;;;;;;;;;;;;;5056012;28;19913;-77
2021/06/25 04:12:53;;;;;;;;;;;;;;;;;;5055986;28;20375;-76
2021/06/25 04:15:18;;;;;;;;;;;;;;;;;;5073810;28;19965;-76
2021/06/25 04:17:43;;;;;;;;;;;;;;;;;;5056105;28;20371;-78
2021/06/25 04:20:09;;;;;;;;;;;;;;;;;;5039200;28;19921;-76
2021/06/25 04:22:34;;;;;;;;;;;;;;;;;;5055797;28;19959;-76
2021/06/25 04:24:59;;;;;;;;;;;;;;;;;;5055818;28;19970;-76
2021/06/25 04:27:25;;;;;;;;;;;;;;;;;;5055624;28;20435;-78
2021/06/25 04:29:50;;;;;;;;;;;;;;;;;;5055788;28;19912;-76
2021/06/25 04:32:17;;;;;;;;;;;;;;;;;;5054835;28;19990;-76
2021/06/25 04:34:42;;;;;;;;;;;;;;;;;;5056991;28;20386;-78
2021/06/25 04:37:07;;;;;;;;;;;;;;;;;;5041088;28;19913;-78
2021/06/25 04:39:32;;;;;;;;;;;;;;;;;;5058013;28;19913;-78
2021/06/25 04:41:57;;;;;;;;;;;;;;;;;;5075126;28;19917;-78
2021/06/25 04:44:23;;;;;;;;;;;;;;;;;;5040098;28;19943;-78
2021/06/25 04:46:48;;;;;;;;;;;;;;;;;;5056589;28;19923;-78
2021/06/25 04:49:13;;;;;;;;;;;;;;;;;;5040254;28;19920;-78
2021/06/25 04:51:38;;;;;;;;;;;;;;;;;;5040027;28;19917;-78
2021/06/25 04:54:04;;;;;;;;;;;;;;;;;;5039787;28;19962;-78
2021/06/25 04:56:29;;;;;;;;;;;;;;;;;;5056425;28;20003;-78
2021/06/25 04:58:54;;;;;;;;;;;;;;;;;;5056606;28;19920;-78
2021/06/25 05:01:19;;;;;;;;;;;;;;;;;;5039929;28;19920;-78
2021/06/25 05:03:44;;;;;;;;;;;;;;;;;;5056830;28;19913;-78
2021/06/25 05:06:10;;;;;;;;;;;;;;;;;;5056661;28;19913;-78
2021/06/25 05:08:35;;;;;;;;;;;;;;;;;;5056697;28;19919;-78
2021/06/25 05:11:00;;;;;;;;;;;;;;;;;;5056441;28;19994;-78
2021/06/25 05:13:25;;;;;;;;;;;;;;;;;;5074780;28;19916;-78
2021/06/25 05:15:51;;;;;;;;;;;;;;;;;;5057492;28;20275;-78
2021/06/25 05:18:17;;;;;;;;;;;;;;;;;;5056472;28;19916;-78
2021/06/25 05:20:42;;;;;;;;;;;;;;;;;;5056692;28;19912;-78
2021/06/25 05:23:08;;;;;;;;;;;;;;;;;;5075227;28;19920;-78
2021/06/25 05:25:33;;;;;;;;;;;;;;;;;;5056905;28;19912;-78
2021/06/25 05:27:58;;;;;;;;;;;;;;;;;;5056651;28;19943;-78
2021/06/25 05:30:23;;;;;;;;;;;;;;;;;;5056551;28;20279;-78
2021/06/25 05:32:48;;;;;;;;;;;;;;;;;;5074673;28;19917;-78
2021/06/25 05:35:14;;;;;;;;;;;;;;;;;;5056706;28;19919;-78
2021/06/25 05:37:39;;;;;;;;;;;;;;;;;;5056776;28;19980;-78
2021/06/25 05:40:04;;;;;;;;;;;;;;;;;;5040137;28;20297;-78
2021/06/25 05:42:30;;;;;;;;;;;;;;;;;;5057415;28;19981;-78
2021/06/25 05:44:55;;;;;;;;;;;;;;;;;;5078561;28;19912;-78
2021/06/25 05:47:20;;;;;;;;;;;;;;;;;;5060292;28;19956;-78
2021/06/25 05:49:45;;;;;;;;;;;;;;;;;;5060809;28;19912;-78
2021/06/25 05:52:10;;;;;;;;;;;;;;;;;;5060314;28;20333;-78
2021/06/25 05:54:36;;;;;;;;;;;;;;;;;;5060149;28;19913;-78
2021/06/25 05:57:01;;;;;;;;;;;;;;;;;;5078315;28;19919;-78
2021/06/25 05:59:26;;;;;;;;;;;;;;;;;;5061154;28;19944;-78
2021/06/25 06:01:51;;;;;;;;;;;;;;;;;;5059802;28;19969;-78
2021/06/25 06:04:16;;;;;;;;;;;;;;;;;;5060463;28;19912;-78
2021/06/25 06:06:42;;;;;;;;;;;;;;;;;;5059876;28;19966;-78
2021/06/25 06:09:07;;;;;;;;;;;;;;;;;;5060444;28;19913;-78
2021/06/25 06:11:32;;;;;;;;;;;;;;;;;;5060392;28;20366;-78
2021/06/25 06:13:57;;;;;;;;;;;;;;;;;;5078017;28;19916;-78
2021/06/25 06:16:23;;;;;;;;;;;;;;;;;;5059924;28;19912;-78
2021/06/25 06:18:49;;;;;;;;;;;;;;;;;;5059607;28;19920;-78
2021/06/25 06:21:15;;;;;;;;;;;;;;;;;;5059817;28;20004;-78
2021/06/25 06:32:00;;;;;;;;;;;;;;;;;;5062488;28;19919;-78
2021/06/25 06:34:26;;;;;;;;;;;;;;;;;;5059419;28;20367;-78
2021/06/25 06:36:51;;;;;;;;;;;;;;;;;;5077612;28;19999;-78
2021/06/25 06:39:18;;;;;;;;;;;;;;;;;;5059568;28;19913;-78
2021/06/25 06:41:43;;;;;;;;;;;;;;;;;;5059646;28;19913;-78
2021/06/25 06:44:08;;;;;;;;;;;;;;;;;;5059465;28;19927;-78
2021/06/25 06:46:34;;;;;;;;;;;;;;;;;;5059417;28;19924;-78
2021/06/25 06:48:59;;;;;;;;;;;;;;;;;;5059504;28;19921;-78
2021/06/25 06:51:24;;;;;;;;;;;;;;;;;;5059791;28;19920;-78
2021/06/25 06:53:50;;;;;;;;;;;;;;;;;;5059145;28;20011;-78
2021/06/25 06:56:15;;;;;;;;;;;;;;;;;;5059511;28;19923;-78
2021/06/25 06:58:41;;;;;;;;;;;;;;;;;;5059804;28;19920;-78
2021/06/25 07:01:06;;;;;;;;;;;;;;;;;;5077099;28;19934;-78
2021/06/25 07:03:32;;;;;;;;;;;;;;;;;;5042458;28;20402;-78
2021/06/25 07:05:57;;;;;;;;;;;;;;;;;;5076947;28;19955;-78
2021/06/25 07:08:22;;;;;;;;;;;;;;;;;;5042333;28;20298;-78
2021/06/25 07:10:47;;;;;;;;;;;;;;;;;;5059312;28;19912;-78
2021/06/25 07:13:13;;;;;;;;;;;;;;;;;;5059239;28;19913;-78
2021/06/25 07:15:38;;;;;;;;;;;;;;;;;;5058757;28;19920;-78
2021/06/25 07:18:03;;;;;;;;;;;;;;;;;;5058830;28;19913;-78
2021/06/25 07:20:29;;;;;;;;;;;;;;;;;;5059018;28;19942;-78
2021/06/25 07:22:54;;;;;;;;;;;;;;;;;;5041751;28;20260;-78
2021/06/25 07:25:19;;;;;;;;;;;;;;;;;;5076889;28;19923;-78
2021/06/25 07:27:44;;;;;;;;;;;;;;;;;;5041552;28;19916;-78
2021/06/25 07:30:10;;;;;;;;;;;;;;;;;;5058631;28;19924;-78
2021/06/25 07:32:35;;;;;;;;;;;;;;;;;;5058675;28;19913;-78
2021/06/25 07:35:00;;;;;;;;;;;;;;;;;;5058276;28;19913;-78
2021/06/25 07:37:25;;;;;;;;;;;;;;;;;;5058184;28;19920;-78
2021/06/25 07:39:51;;;;;;;;;;;;;;;;;;5041312;28;19935;-78
2021/06/25 07:42:16;;;;;;;;;;;;;;;;;;5040944;28;20375;-78
2021/06/25 07:44:41;;;;;;;;;;;;;;;;;;5057789;28;20420;-78
2021/06/25 07:47:06;;;;;;;;;;;;;;;;;;5057519;28;19917;-78
2021/06/25 07:49:32;;;;;;;;;;;;;;;;;;5075349;28;19913;-78
2021/06/25 07:51:57;;;;;;;;;;;;;;;;;;5075581;28;20297;-78
2021/06/25 07:54:22;;;;;;;;;;;;;;;;;;5057828;28;19919;-78
2021/06/25 07:56:47;;;;;;;;;;;;;;;;;;5041582;28;19912;-78
2021/06/25 07:59:13;;;;;;;;;;;;;;;;;;5075586;28;19912;-78
2021/06/25 08:01:38;;;;;;;;;;;;;;;;;;5075451;28;19950;-78
2021/06/25 08:04:03;;;;;;;;;;;;;;;;;;5058213;28;19916;-78
2021/06/25 08:06:29;;;;;;;;;;;;;;;;;;5057756;28;19916;-78
2021/06/25 08:08:54;;;;;;;;;;;;;;;;;;5058265;28;20298;-78
2021/06/25 08:11:20;;;;;;;;;;;;;;;;;;5057734;28;19999;-78
2021/06/25 08:13:45;;;;;;;;;;;;;;;;;;5075717;28;19966;-78
2021/06/25 08:16:10;;;;;;;;;;;;;;;;;;5058335;28;19916;-78
2021/06/25 08:18:35;;;;;;;;;;;;;;;;;;5058104;28;19982;-78
2021/06/25 08:21:00;;;;;;;;;;;;;;;;;;5057815;28;20383;-78
2021/06/25 08:23:26;;;;;;;;;;;;;;;;;;5057654;28;19912;-78
2021/06/25 08:25:51;;;;;;;;;;;;;;;;;;5057242;28;20396;-78
2021/06/25 08:28:16;;;;;;;;;;;;;;;;;;5075252;28;20371;-78
2021/06/25 08:30:41;;;;;;;;;;;;;;;;;;5057489;28;20477;-78
2021/06/25 08:33:07;;;;;;;;;;;;;;;;;;5057182;28;19913;-78
2021/06/25 08:35:32;;;;;;;;;;;;;;;;;;5057429;28;19913;-78
2021/06/25 08:37:57;;;;;;;;;;;;;;;;;;5057278;28;20025;-78
2021/06/25 08:40:22;;;;;;;;;;;;;;;;;;5040910;28;19913;-78
2021/06/25 08:42:48;;;;;;;;;;;;;;;;;;5056953;28;19913;-78
2021/06/25 08:45:13;;;;;;;;;;;;;;;;;;5057509;28;20417;-78
2021/06/25 08:47:46;;;;;;;;;;;;;;;;;;5040525;28;19916;-78
2021/06/25 08:50:12;;;;;;;;;;;;;;;;;;5057025;28;20374;-78
2021/06/25 08:52:37;;;;;;;;;;;;;;;;;;5074756;28;20340;-78
2021/06/25 08:55:02;;;;;;;;;;;;;;;;;;5057365;28;19920;-78
2021/06/25 08:57:31;;;;;;;;;;;;;;;;;;5056854;28;19962;-78
2021/06/25 08:59:56;;;;;;;;;;;;;;;;;;5057235;28;20003;-78
2021/06/25 09:02:21;;;;;;;;;;;;;;;;;;5057635;28;19948;-78
2021/06/25 09:04:47;;;;;;;;;;;;;;;;;;5040560;28;20006;-78
2021/06/25 09:07:12;;;;;;;;;;;;;;;;;;5057182;28;19922;-78
2021/06/25 09:09:38;;;;;;;;;;;;;;;;;;5041144;28;19912;-78
2021/06/25 09:12:06;;;;;;;;;;;;;;;;;;5057914;28;19916;-78
2021/06/25 09:14:52;;;;;;;;;;;;;;;;;;5075335;28;19916;-78
2021/06/25 09:17:17;;;;;;;;;;;;;;;;;;5057687;28;19919;-78
2021/06/25 09:19:42;;;;;;;;;;;;;;;;;;5055697;22;19904;-79
2021/06/25 09:22:07;;;;;;;;;;;;;;;;;;5025275;28;19975;-79
2021/06/25 09:24:33;;;;;;;;;;;;;;;;;;5025473;28;19938;-79
2021/06/25 09:27:03;;;;;;;;;;;;;;;;;;5025204;28;19916;-79
2021/06/25 09:29:35;;;;;;;;;;;;;;;;;;5041238;28;19923;-79
2021/06/25 09:32:02;;;;;;;;;;;;;;;;;;5041064;28;19955;-79
2021/06/25 09:34:41;;;;;;;;;;;;;;;;;;5041200;28;19913;-79
2021/06/25 09:37:08;;;;;;;;;;;;;;;;;;5057804;28;19913;-79
2021/06/25 09:39:33;;;;;;;;;;;;;;;;;;5041447;28;19913;-79
2021/06/25 09:41:58;;;;;;;;;;;;;;;;;;5040662;28;19917;-79
2021/06/25 09:44:24;;;;;;;;;;;;;;;;;;5040953;28;19913;-79
2021/06/25 09:46:50;;;;;;;;;;;;;;;;;;5040740;28;19913;-79
2021/06/25 09:49:16;;;;;;;;;;;;;;;;;;5040814;28;19924;-79
2021/06/25 09:51:54;;;;;;;;;;;;;;;;;;5040644;28;19977;-79
2021/06/25 09:54:19;;;;;;;;;;;;;;;;;;5057565;28;20383;-79
2021/06/25 10:01:59;;;;;;;;;;;;;;;;;;5057715;28;19913;-79
2021/06/25 10:04:34;;;;;;;;;;;;;;;;;;5040268;28;20327;-79
2021/06/25 10:07:09;;;;;;;;;;;;;;;;;;5040181;28;19917;-79
2021/06/25 10:09:34;;;;;;;;;;;;;;;;;;5040196;28;20299;-79
2021/06/25 10:11:59;;;;;;;;;;;;;;;;;;5040062;28;19916;-79
2021/06/25 10:14:24;;;;;;;;;;;;;;;;;;5056901;28;20022;-79
2021/06/25 10:16:50;;;;;;;;;;;;;;;;;;5040329;28;19913;-79
2021/06/25 10:19:15;;;;;;;;;;;;;;;;;;5040229;28;19913;-79
2021/06/25 10:21:41;;;;;;;;;;;;;;;;;;5039879;28;19917;-79
2021/06/25 10:24:06;;;;;;;;;;;;;;;;;;5040136;28;19920;-79
2021/06/25 10:26:31;;;;;;;;;;;;;;;;;;5039954;28;19913;-79
2021/06/25 10:28:57;;;;;;;;;;;;;;;;;;5038890;28;20018;-79
2021/06/25 10:31:22;;;;;;;;;;;;;;;;;;5039881;28;19977;-79
2021/06/25 10:33:48;;;;;;;;;;;;;;;;;;5039828;28;19920;-79
2021/06/25 10:36:14;;;;;;;;;;;;;;;;;;5056460;28;19956;-79
2021/06/25 10:38:41;;;;;;;;;;;;;;;;;;5039966;28;20006;-79
2021/06/25 10:41:07;;;;;;;;;;;;;;;;;;5056746;28;19913;-79
2021/06/25 10:43:42;;;;;;;;;;;;;;;;;;5039749;28;20007;-79
2021/06/25 10:46:29;;;;;;;;;;;;;;;;;;5039593;28;19912;-79
2021/06/25 10:48:58;;;;;;;;;;;;;;;;;;5057643;28;19962;-79
2021/06/25 10:51:34;;;;;;;;;;;;;;;;;;5056404;28;20300;-79
2021/06/25 10:54:04;;;;;;;;;;;;;;;;;;5039099;28;20342;-79
2021/06/25 10:56:29;;;;;;;;;;;;;;;;;;5039501;28;20015;-79
2021/06/25 10:59:12;;;;;;;;;;;;;;;;;;5039250;28;19964;-79
2021/06/25 11:01:50;;;;;;;;;;;;;;;;;;5039429;28;19916;-79
2021/06/25 11:04:34;;;;;;;;;;;;;;;;;;5055670;28;19952;-79
2021/06/25 11:07:02;;;;;;;;;;;;;;;;;;5039226;28;19962;-79
2021/06/25 11:09:47;;;;;;;;;;;;;;;;;;5039203;28;19921;-79
2021/06/25 11:12:13;;;;;;;;;;;;;;;;;;5039197;28;19940;-79
2021/06/25 11:14:39;;;;;;;;;;;;;;;;;;5039168;28;19923;-79
2021/06/25 11:17:04;;;;;;;;;;;;;;;;;;5039279;28;19917;-79
2021/06/25 11:19:33;;;;;;;;;;;;;;;;;;5038941;28;19962;-79
2021/06/25 11:21:59;;;;;;;;;;;;;;;;;;5039019;28;20379;-79
2021/06/25 11:24:43;;;;;;;;;;;;;;;;;;5039111;28;19913;-79
2021/06/25 11:27:08;;;;;;;;;;;;;;;;;;5039024;28;20252;-79
2021/06/25 11:29:46;;;;;;;;;;;;;;;;;;5055653;28;19946;-79
2021/06/25 11:32:11;;;;;;;;;;;;;;;;;;5055618;28;19920;-79
2021/06/25 11:34:36;;;;;;;;;;;;;;;;;;5039192;28;19912;-79
2021/06/25 11:37:02;;;;;;;;;;;;;;;;;;5055522;28;19913;-79
2021/06/25 11:39:31;;;;;;;;;;;;;;;;;;5038525;28;20394;-79
2021/06/25 11:41:56;;;;;;;;;;;;;;;;;;5038608;28;19940;-79
2021/06/25 11:44:24;;;;;;;;;;;;;;;;;;5057123;28;19919;-79
2021/06/25 11:46:50;;;;;;;;;;;;;;;;;;5038324;28;19917;-79
2021/06/25 11:49:16;;;;;;;;;;;;;;;;;;5038967;28;20357;-79
2021/06/25 11:51:41;;;;;;;;;;;;;;;;;;5038390;28;19912;-79
2021/06/25 11:54:07;;;;;;;;;;;;;;;;;;5038547;28;19913;-79
2021/06/25 11:56:33;;;;;;;;;;;;;;;;;;5037800;28;19917;-79
2021/06/25 11:58:59;;;;;;;;;;;;;;;;;;5038338;28;19943;-79
2021/06/25 12:01:24;;;;;;;;;;;;;;;;;;5054316;28;19913;-79
2021/06/25 12:03:50;;;;;;;;;;;;;;;;;;5038190;28;19920;-79
2021/06/25 12:06:15;;;;;;;;;;;;;;;;;;5037841;28;19920;-79
2021/06/25 12:08:54;;;;;;;;;;;;;;;;;;5038129;28;19924;-79
2021/06/25 12:11:20;;;;;;;;;;;;;;;;;;5054883;28;20438;-79
2021/06/25 12:13:45;;;;;;;;;;;;;;;;;;5038101;28;19912;-79
2021/06/25 12:16:10;;;;;;;;;;;;;;;;;;5054796;28;19913;-79
2021/06/25 12:18:37;;;;;;;;;;;;;;;;;;5054566;28;19912;-79
2021/06/25 12:21:03;;;;;;;;;;;;;;;;;;5054350;28;19999;-79
2021/06/25 12:23:28;;;;;;;;;;;;;;;;;;5038416;28;19952;-79
2021/06/25 12:25:53;;;;;;;;;;;;;;;;;;5055056;28;19913;-79
2021/06/25 12:28:19;;;;;;;;;;;;;;;;;;5037731;28;19923;-79
2021/06/25 12:31:06;;;;;;;;;;;;;;;;;;5037986;28;20303;-79
2021/06/25 12:33:35;;;;;;;;;;;;;;;;;;5038355;28;19935;-79
2021/06/25 12:36:03;;;;;;;;;;;;;;;;;;5036470;28;19921;-79
2021/06/25 12:38:29;;;;;;;;;;;;;;;;;;5017815;28;19917;-79
2021/06/25 12:40:55;;;;;;;;;;;;;;;;;;5035750;28;19917;-79
2021/06/25 12:43:26;;;;;;;;;;;;;;;;;;5034122;28;20297;-79
2021/06/25 12:45:52;;;;;;;;;;;;;;;;;;5044807;28;20022;-79
2021/06/25 12:48:17;;;;;;;;;;;;;;;;;;5042346;28;19916;-78
2021/06/25 12:50:43;;;;;;;;;;;;;;;;;;5017379;28;20012;-78
2021/06/25 12:53:15;;;;;;;;;;;;;;;;;;5033159;28;19916;-78
2021/06/25 12:55:43;;;;;;;;;;;;;;;;;;5019730;28;19924;-78
2021/06/25 12:58:09;;;;;;;;;;;;;;;;;;5028637;28;19917;-79
2021/06/25 13:00:34;;;;;;;;;;;;;;;;;;5042578;28;19917;-79
2021/06/25 13:02:59;;;;;;;;;;;;;;;;;;5036496;28;19917;-78
2021/06/25 13:05:34;;;;;;;;;;;;;;;;;;5024442;28;20441;-79
2021/06/25 13:08:12;;;;;;;;;;;;;;;;;;5033236;28;20367;-78
2021/06/25 13:10:38;;;;;;;;;;;;;;;;;;5033395;28;19917;-79
2021/06/25 13:13:13;;;;;;;;;;;;;;;;;;5045431;28;19966;-78
2021/06/25 13:15:46;;;;;;;;;;;;;;;;;;5018474;28;19920;-78
2021/06/25 13:18:11;;;;;;;;;;;;;;;;;;5017051;28;20011;-78
2021/06/25 13:20:55;;;;;;;;;;;;;;;;;;5019871;28;19964;-78
2021/06/25 13:23:21;;;;;;;;;;;;;;;;;;5053068;28;20366;-78
2021/06/25 13:26:19;;;;;;;;;;;;;;;;;;5047983;28;19966;-78
2021/06/25 13:28:54;;;;;;;;;;;;;;;;;;5025532;28;19920;-78
2021/06/25 13:31:19;;;;;;;;;;;;;;;;;;5029862;28;19924;-78
2021/06/25 13:33:45;;;;;;;;;;;;;;;;;;5047665;28;20410;-78
2021/06/25 13:36:10;;;;;;;;;;;;;;;;;;5019802;28;19920;-79
2021/06/25 13:38:35;;;;;;;;;;;;;;;;;;5024026;28;19963;-79
2021/06/25 13:41:09;;;;;;;;;;;;;;;;;;5016428;28;19917;-78
2021/06/25 13:43:35;;;;;;;;;;;;;;;;;;5008092;28;20375;-78
2021/06/25 13:46:07;;;;;;;;;;;;;;;;;;5051417;28;19917;-79
2021/06/25 13:48:32;;;;;;;;;;;;;;;;;;5039728;28;20039;-79
2021/06/25 13:51:02;;;;;;;;;;;;;;;;;;5036345;28;19916;-79
2021/06/25 13:53:40;;;;;;;;;;;;;;;;;;5026374;28;19913;-78
2021/06/25 13:56:13;;;;;;;;;;;;;;;;;;5032855;28;19913;-79
2021/06/25 13:58:53;;;;;;;;;;;;;;;;;;5016880;28;19967;-78
2021/06/25 14:01:20;;;;;;;;;;;;;;;;;;5034711;28;20007;-78
2021/06/25 14:03:51;;;;;;;;;;;;;;;;;;5032043;28;20292;-78
2021/06/25 14:06:16;;;;;;;;;;;;;;;;;;5003577;28;19959;-79
2021/06/25 14:08:42;;;;;;;;;;;;;;;;;;5006672;28;20395;-79
2021/06/25 14:11:16;;;;;;;;;;;;;;;;;;5022933;28;19924;-79
2021/06/25 14:13:42;;;;;;;;;;;;;;;;;;5039789;28;19917;-78
2021/06/25 14:16:12;;;;;;;;;;;;;;;;;;5019852;28;19917;-78
2021/06/25 14:18:37;;;;;;;;;;;;;;;;;;5046032;28;19917;-79
2021/06/25 14:21:02;;;;;;;;;;;;;;;;;;5034378;28;20273;-79
2021/06/25 14:23:27;;;;;;;;;;;;;;;;;;5035197;28;20356;-78
2021/06/25 14:25:52;;;;;;;;;;;;;;;;;;5047378;28;19967;-77
2021/06/25 14:28:25;;;;;;;;;;;;;;;;;;5049273;28;19913;-77
2021/06/25 14:30:50;;;;;;;;;;;;;;;;;;5016782;28;19925;-78
2021/06/25 14:33:15;;;;;;;;;;;;;;;;;;5033727;28;20003;-78
2021/06/25 14:35:40;;;;;;;;;;;;;;;;;;5019334;28;19925;-77
2021/06/25 14:38:05;;;;;;;;;;;;;;;;;;5044296;28;20011;-77
2021/06/25 14:40:31;;;;;;;;;;;;;;;;;;5032431;28;19923;-76
2021/06/25 14:42:56;;;;;;;;;;;;;;;;;;5015635;28;20008;-77
2021/06/25 14:45:21;;;;;;;;;;;;;;;;;;5003033;28;19923;-76
2021/06/25 14:47:46;;;;;;;;;;;;;;;;;;5053207;28;19959;-78
2021/06/25 14:50:12;;;;;;;;;;;;;;;;;;5020487;28;19925;-78
2021/06/25 14:52:37;;;;;;;;;;;;;;;;;;5054219;28;19917;-78
2021/06/25 14:55:03;;;;;;;;;;;;;;;;;;5026266;28;20008;-78
2021/06/25 14:57:28;;;;;;;;;;;;;;;;;;5037932;28;19912;-78
2021/06/25 14:59:53;;;;;;;;;;;;;;;;;;5035399;28;19984;-78
2021/06/25 15:02:18;;;;;;;;;;;;;;;;;;5016651;28;20282;-78
2021/06/25 15:04:43;;;;;;;;;;;;;;;;;;5026529;28;19924;-77
2021/06/25 15:07:09;;;;;;;;;;;;;;;;;;5033943;28;19924;-77
2021/06/25 15:09:34;;;;;;;;;;;;;;;;;;5016594;28;19921;-76
2021/06/25 15:11:59;;;;;;;;;;;;;;;;;;5034753;28;20493;-77
2021/06/25 15:14:24;;;;;;;;;;;;;;;;;;5056452;28;19999;-78
2021/06/25 15:16:50;;;;;;;;;;;;;;;;;;5041591;28;20389;-78
2021/06/25 15:19:15;;;;;;;;;;;;;;;;;;5035198;28;19920;-78
2021/06/25 15:24:08;;;;;;;;;;;;;;;;;;5096523;28;19924;-80
2021/06/25 15:26:33;;;;;;;;;;;;;;;;;;5081151;28;20392;-80
2021/06/25 15:28:58;;;;;;;;;;;;;;;;;;5077880;28;19917;-80
2021/06/25 15:31:25;;;;;;;;;;;;;;;;;;5059403;28;20400;-80
2021/06/25 15:33:51;;;;;;;;;;;;;;;;;;5095442;28;19948;-80
2021/06/25 15:36:16;;;;;;;;;;;;;;;;;;5096363;28;19915;-80
2021/06/25 15:38:42;;;;;;;;;;;;;;;;;;5079616;28;20382;-80
2021/06/25 15:41:07;;;;;;;;;;;;;;;;;;5079427;28;19912;-80
2021/06/25 15:43:33;;;;;;;;;;;;;;;;;;5097560;28;19923;-80
2021/06/25 15:45:58;;;;;;;;;;;;;;;;;;5079322;28;19977;-80
2021/06/25 15:48:23;;;;;;;;;;;;;;;;;;5079086;28;20441;-80
2021/06/25 15:50:48;;;;;;;;;;;;;;;;;;5079282;28;19912;-80
2021/06/25 15:53:13;;;;;;;;;;;;;;;;;;5079169;28;19919;-80
2021/06/25 15:55:47;;;;;;;;;;;;;;;;;;5078968;28;19912;-80
2021/06/25 15:58:12;;;;;;;;;;;;;;;;;;5079943;28;20002;-80
2021/06/25 16:00:37;;;;;;;;;;;;;;;;;;5099454;28;19958;-80
2021/06/25 16:03:03;;;;;;;;;;;;;;;;;;5079863;28;19912;-80
2021/06/25 16:05:28;;;;;;;;;;;;;;;;;;5079675;28;20291;-80
2021/06/25 16:07:53;;;;;;;;;;;;;;;;;;5079037;28;19916;-80
2021/06/25 16:10:22;;;;;;;;;;;;;;;;;;5078998;28;19912;-80
2021/06/25 16:12:47;;;;;;;;;;;;;;;;;;5096377;28;19919;-80
2021/06/25 16:15:12;;;;;;;;;;;;;;;;;;5079470;28;19916;-80
2021/06/25 16:17:37;;;;;;;;;;;;;;;;;;5079763;28;19988;-80
2021/06/25 16:20:04;;;;;;;;;;;;;;;;;;5078741;28;19958;-80
2021/06/25 16:22:29;;;;;;;;;;;;;;;;;;5059715;28;19924;-80
2021/06/25 16:24:55;;;;;;;;;;;;;;;;;;5070248;28;19961;-80
2021/06/25 16:27:21;;;;;;;;;;;;;;;;;;5061979;28;20299;-80
2021/06/25 16:29:46;;;;;;;;;;;;;;;;;;5042121;28;19950;-80
2021/06/25 16:32:11;;;;;;;;;;;;;;;;;;5046582;28;19925;-80
2021/06/25 16:34:37;;;;;;;;;;;;;;;;;;5059017;28;19916;-80
2021/06/25 16:37:02;;;;;;;;;;;;;;;;;;5078505;28;19916;-80
2021/06/25 16:39:27;;;;;;;;;;;;;;;;;;5078440;28;19920;-80
2021/06/25 16:41:52;;;;;;;;;;;;;;;;;;5083576;28;19927;-79
2021/06/25 16:44:17;;;;;;;;;;;;;;;;;;5058812;28;19916;-80
2021/06/25 16:46:43;;;;;;;;;;;;;;;;;;5068260;28;20034;-81
2021/06/25 16:49:08;;;;;;;;;;;;;;;;;;5076341;28;19935;-81
2021/06/25 16:51:33;;;;;;;;;;;;;;;;;;5070611;28;19916;-81
2021/06/25 16:53:58;;;;;;;;;;;;;;;;;;5061755;28;19962;-81
2021/06/25 16:56:23;;;;;;;;;;;;;;;;;;5071771;28;19951;-83